Time;durP1;ratioP1;P1;durP2;ratioP2;P2;SDS_P1;SDS_P2;PMS_P1;PMS_P2;Temp;Humidity;BMP_temperature;BMP_pressure;BME280_temperature;BME280_humidity;BME280_pressure;Samples;Min_cycle;Max_cycle;Signal;HPM_P1;HPM_P2
2023/11/10 00:01:10;;;;;;;8.80;4.10;;;;;;;;;;770152;179;816672;-67
2023/11/10 00:03:36;;;;;;;6.40;3.37;;;;;;;;;;774963;180;818556;-68
2023/11/10 00:06:01;;;;;;;12.60;3.70;;;;;;;;;;777676;179;816819;-68
2023/11/10 00:08:27;;;;;;;7.73;3.60;;;;;;;;;;772249;179;919413;-68
2023/11/10 00:10:53;;;;;;;7.20;3.60;;;;;;;;;;779520;179;816393;-68
2023/11/10 00:13:21;;;;;;;6.00;4.10;;;;;;;;;;771263;179;918609;-67
2023/11/10 00:15:47;;;;;;;6.20;3.90;;;;;;;;;;777107;177;920331;-67
2023/11/10 00:18:12;;;;;;;5.60;3.50;;;;;;;;;;777186;178;920870;-68
2023/11/10 00:20:39;;;;;;;5.90;3.80;;;;;;;;;;774542;180;945183;-68
2023/11/10 00:23:05;;;;;;;5.80;4.13;;;;;;;;;;775398;178;892849;-70
2023/11/10 00:25:30;;;;;;;7.07;3.43;;;;;;;;;;781390;178;918701;-67
2023/11/10 00:27:56;;;;;;;5.47;3.60;;;;;;;;;;774062;179;908124;-68
2023/11/10 00:30:22;;;;;;;7.23;3.80;;;;;;;;;;772770;178;898683;-67
2023/11/10 00:32:48;;;;;;;8.57;3.33;;;;;;;;;;777423;178;821072;-67
2023/11/10 00:35:14;;;;;;;6.50;3.70;;;;;;;;;;779118;179;911326;-68
2023/11/10 00:37:39;;;;;;;7.77;3.83;;;;;;;;;;773422;179;917943;-68
2023/11/10 00:40:06;;;;;;;6.00;3.77;;;;;;;;;;773461;179;919042;-67
2023/11/10 00:42:32;;;;;;;6.50;4.07;;;;;;;;;;777736;176;817262;-68
2023/11/10 00:44:57;;;;;;;6.77;4.67;;;;;;;;;;775062;180;814955;-68
2023/11/10 00:47:23;;;;;;;8.20;3.80;;;;;;;;;;777634;175;920873;-68
2023/11/10 00:49:49;;;;;;;9.53;3.40;;;;;;;;;;776390;179;817893;-68
2023/11/10 00:52:15;;;;;;;6.47;3.90;;;;;;;;;;783990;179;889224;-68
2023/11/10 00:54:41;;;;;;;9.30;4.30;;;;;;;;;;767515;180;923770;-68
2023/11/10 00:57:07;;;;;;;4.47;3.30;;;;;;;;;;772502;179;919448;-68
2023/11/10 00:59:32;;;;;;;6.40;4.40;;;;;;;;;;778262;179;916191;-68
2023/11/10 01:01:58;;;;;;;8.07;3.13;;;;;;;;;;775798;179;915752;-68
2023/11/10 01:04:24;;;;;;;6.93;4.10;;;;;;;;;;777120;179;921683;-68
2023/11/10 01:06:50;;;;;;;6.93;4.17;;;;;;;;;;777022;179;777679;-68
2023/11/10 01:09:18;;;;;;;5.50;4.23;;;;;;;;;;781227;179;920543;-68
2023/11/10 01:11:43;;;;;;;6.60;4.70;;;;;;;;;;772413;179;919032;-68
2023/11/10 01:14:08;;;;;;;6.00;3.93;;;;;;;;;;776425;178;915291;-68
2023/11/10 01:16:34;;;;;;;6.37;3.93;;;;;;;;;;781794;179;920935;-67
2023/11/10 01:19:00;;;;;;;8.13;5.50;;;;;;;;;;778996;177;920274;-67
2023/11/10 01:21:25;;;;;;;5.63;4.07;;;;;;;;;;775758;179;917353;-68
2023/11/10 01:23:52;;;;;;;5.57;4.30;;;;;;;;;;782426;179;915260;-68
2023/11/10 01:26:17;;;;;;;5.00;3.57;;;;;;;;;;772320;178;918740;-68
2023/11/10 01:28:43;;;;;;;5.50;3.60;;;;;;;;;;779287;176;924024;-67
2023/11/10 01:31:09;;;;;;;8.83;3.53;;;;;;;;;;779446;178;921606;-68
2023/11/10 01:33:35;;;;;;;7.10;4.07;;;;;;;;;;774619;178;917952;-67
2023/11/10 01:36:00;;;;;;;5.80;3.60;;;;;;;;;;775234;178;918020;-67
2023/11/10 01:38:26;;;;;;;7.40;4.28;;;;;;;;;;782632;178;920780;-67
2023/11/10 01:40:52;;;;;;;6.33;3.60;;;;;;;;;;769262;180;914884;-67
2023/11/10 01:43:18;;;;;;;6.43;3.90;;;;;;;;;;767710;179;918323;-67
2023/11/10 01:45:44;;;;;;;7.00;4.00;;;;;;;;;;770160;178;919189;-68
2023/11/10 01:48:11;;;;;;;6.22;4.00;;;;;;;;;;779429;177;917178;-67
2023/11/10 01:50:36;;;;;;;6.50;3.57;;;;;;;;;;776287;179;816568;-67
2023/11/10 01:53:03;;;;;;;6.53;3.43;;;;;;;;;;780467;177;913446;-67
2023/11/10 01:55:29;;;;;;;6.27;4.40;;;;;;;;;;781166;179;812314;-68
2023/11/10 01:57:55;;;;;;;5.70;3.60;;;;;;;;;;774400;178;919633;-67
2023/11/10 02:00:20;;;;;;;8.32;3.95;;;;;;;;;;778496;179;919032;-68
2023/11/10 02:02:47;;;;;;;7.87;4.05;;;;;;;;;;769339;181;920995;-68
2023/11/10 02:05:13;;;;;;;5.60;3.57;;;;;;;;;;784033;179;817893;-67
2023/11/10 02:07:39;;;;;;;6.73;4.30;;;;;;;;;;774702;180;919174;-67
2023/11/10 02:10:05;;;;;;;6.73;4.40;;;;;;;;;;772333;179;919201;-67
2023/11/10 02:12:31;;;;;;;7.00;4.53;;;;;;;;;;772098;179;817089;-67
2023/11/10 02:14:57;;;;;;;5.90;4.10;;;;;;;;;;779340;178;815954;-67
2023/11/10 02:17:22;;;;;;;7.30;3.83;;;;;;;;;;779884;178;814910;-67
2023/11/10 02:19:48;;;;;;;6.77;4.20;;;;;;;;;;774565;180;925752;-67
2023/11/10 02:22:14;;;;;;;9.40;4.53;;;;;;;;;;770938;179;918875;-67
2023/11/10 02:24:40;;;;;;;7.30;4.90;;;;;;;;;;776927;179;913354;-68
2023/11/10 02:27:06;;;;;;;7.43;5.07;;;;;;;;;;782228;176;816361;-67
2023/11/10 02:29:32;;;;;;;9.93;4.87;;;;;;;;;;771072;179;916336;-67
2023/11/10 02:31:57;;;;;;;8.37;4.57;;;;;;;;;;771035;179;918761;-67
2023/11/10 02:34:23;;;;;;;10.20;5.00;;;;;;;;;;776769;179;919688;-67
2023/11/10 02:36:51;;;;;;;9.07;4.60;;;;;;;;;;778389;179;813064;-67
2023/11/10 02:39:16;;;;;;;6.40;4.40;;;;;;;;;;765827;181;817745;-67
2023/11/10 02:41:41;;;;;;;7.17;4.50;;;;;;;;;;778077;178;920420;-67
2023/11/10 02:44:07;;;;;;;7.70;5.13;;;;;;;;;;781061;178;918335;-68
2023/11/10 02:46:32;;;;;;;8.70;5.40;;;;;;;;;;770859;178;816808;-68
2023/11/10 02:48:59;;;;;;;7.30;4.37;;;;;;;;;;778763;178;919773;-67
2023/11/10 02:51:24;;;;;;;7.90;4.37;;;;;;;;;;784675;179;921121;-67
2023/11/10 02:53:50;;;;;;;6.03;3.83;;;;;;;;;;780059;178;918625;-67
2023/11/10 02:56:16;;;;;;;7.50;4.90;;;;;;;;;;773533;178;907445;-67
2023/11/10 02:58:42;;;;;;;8.77;4.63;;;;;;;;;;780257;179;919307;-67
2023/11/10 03:01:08;;;;;;;12.13;4.73;;;;;;;;;;772916;179;918477;-67
2023/11/10 03:03:33;;;;;;;11.27;5.30;;;;;;;;;;775097;179;919119;-67
2023/11/10 03:05:59;;;;;;;8.03;5.07;;;;;;;;;;776709;180;919693;-67
2023/11/10 03:08:25;;;;;;;10.83;5.30;;;;;;;;;;785298;179;780730;-67
2023/11/10 03:10:51;;;;;;;9.73;4.70;;;;;;;;;;778924;179;919141;-67
2023/11/10 03:13:17;;;;;;;8.90;5.00;;;;;;;;;;778375;179;980935;-67
2023/11/10 03:15:43;;;;;;;7.50;4.63;;;;;;;;;;778667;179;919412;-67
2023/11/10 03:18:09;;;;;;;9.80;5.30;;;;;;;;;;779966;177;917926;-67
2023/11/10 03:20:34;;;;;;;6.80;4.37;;;;;;;;;;781427;179;815684;-67
2023/11/10 03:23:00;;;;;;;8.03;4.70;;;;;;;;;;782465;179;919068;-68
2023/11/10 03:25:26;;;;;;;8.30;5.23;;;;;;;;;;779682;179;918024;-67
2023/11/10 03:27:52;;;;;;;10.57;4.97;;;;;;;;;;771195;179;918891;-67
2023/11/10 03:30:18;;;;;;;7.43;4.10;;;;;;;;;;767584;179;918385;-68
2023/11/10 03:32:44;;;;;;;10.48;5.00;;;;;;;;;;786169;179;917923;-67
2023/11/10 03:35:11;;;;;;;7.27;4.73;;;;;;;;;;778668;179;918950;-68
2023/11/10 03:37:35;;;;;;;6.32;4.78;;;;;;;;;;774868;176;918164;-67
2023/11/10 03:40:02;;;;;;;5.73;4.50;;;;;;;;;;778690;179;919814;-67
2023/11/10 03:42:28;;;;;;;7.30;4.10;;;;;;;;;;778869;178;919080;-67
2023/11/10 03:44:53;;;;;;;9.47;4.87;;;;;;;;;;773738;179;919216;-67
2023/11/10 03:47:19;;;;;;;6.97;4.80;;;;;;;;;;776731;179;918810;-67
2023/11/10 03:49:44;;;;;;;6.90;4.53;;;;;;;;;;769673;179;918903;-67
2023/11/10 03:52:10;;;;;;;7.00;4.30;;;;;;;;;;783925;178;908713;-67
2023/11/10 03:54:36;;;;;;;9.47;4.77;;;;;;;;;;772165;178;923847;-66
2023/11/10 03:57:02;;;;;;;7.73;4.87;;;;;;;;;;776990;178;865792;-66
2023/11/10 03:59:29;;;;;;;5.77;4.37;;;;;;;;;;780780;178;921851;-67
2023/11/10 04:01:54;;;;;;;6.70;4.83;;;;;;;;;;781249;178;1021055;-68
2023/11/10 04:04:19;;;;;;;7.43;4.27;;;;;;;;;;778817;178;919267;-68
2023/11/10 04:06:45;;;;;;;8.30;4.53;;;;;;;;;;777637;178;829112;-69
2023/11/10 04:09:11;;;;;;;7.20;5.20;;;;;;;;;;775078;178;918380;-68
2023/11/10 04:11:37;;;;;;;8.80;5.13;;;;;;;;;;779337;179;919196;-67
2023/11/10 04:14:03;;;;;;;7.13;4.90;;;;;;;;;;776157;179;918956;-67
2023/11/10 04:16:29;;;;;;;5.90;4.50;;;;;;;;;;770127;179;920920;-67
2023/11/10 04:18:54;;;;;;;7.60;4.90;;;;;;;;;;782468;179;919121;-68
2023/11/10 04:21:21;;;;;;;6.72;4.78;;;;;;;;;;778402;179;942564;-68
2023/11/10 04:23:48;;;;;;;5.87;4.33;;;;;;;;;;774534;177;818624;-68
2023/11/10 04:26:13;;;;;;;6.77;4.80;;;;;;;;;;773907;179;917382;-68
2023/11/10 04:28:39;;;;;;;8.70;5.20;;;;;;;;;;785482;177;917831;-68
2023/11/10 04:31:05;;;;;;;6.40;5.00;;;;;;;;;;773287;179;915649;-68
2023/11/10 04:33:31;;;;;;;9.03;5.07;;;;;;;;;;777937;177;918832;-68
2023/11/10 04:35:57;;;;;;;7.17;5.80;;;;;;;;;;779130;178;917031;-68
2023/11/10 04:38:25;;;;;;;9.10;5.80;;;;;;;;;;775557;178;915925;-68
2023/11/10 04:40:49;;;;;;;10.93;6.97;;;;;;;;;;775716;179;919123;-67
2023/11/10 04:43:15;;;;;;;8.17;6.63;;;;;;;;;;781972;179;917583;-68
2023/11/10 04:45:41;;;;;;;7.10;5.10;;;;;;;;;;780338;179;921206;-67
2023/11/10 04:48:07;;;;;;;9.32;5.97;;;;;;;;;;777195;178;919160;-67
2023/11/10 04:50:33;;;;;;;9.03;5.60;;;;;;;;;;779740;179;1022097;-67
2023/11/10 04:52:58;;;;;;;10.27;5.80;;;;;;;;;;775870;177;816862;-67
2023/11/10 04:55:24;;;;;;;6.80;5.40;;;;;;;;;;776345;179;912996;-67
2023/11/10 04:57:50;;;;;;;9.67;5.73;;;;;;;;;;772119;180;917509;-68
2023/11/10 05:00:16;;;;;;;6.90;5.20;;;;;;;;;;779159;179;895684;-69
2023/11/10 05:02:45;;;;;;;6.90;5.80;;;;;;;;;;776417;179;918112;-68
2023/11/10 05:05:10;;;;;;;10.15;6.07;;;;;;;;;;780218;178;918452;-68
2023/11/10 05:07:36;;;;;;;9.77;6.10;;;;;;;;;;785514;177;915025;-69
2023/11/10 05:10:03;;;;;;;7.40;5.80;;;;;;;;;;775731;178;919133;-67
2023/11/10 05:12:29;;;;;;;9.97;5.17;;;;;;;;;;768883;178;919160;-68
2023/11/10 05:14:54;;;;;;;6.63;4.27;;;;;;;;;;775736;178;1223042;-68
2023/11/10 05:17:21;;;;;;;6.18;4.43;;;;;;;;;;778566;178;900754;-68
2023/11/10 05:19:45;;;;;;;7.03;5.53;;;;;;;;;;778959;179;916193;-68
2023/11/10 05:22:11;;;;;;;8.57;5.80;;;;;;;;;;780081;179;853128;-68
2023/11/10 05:24:37;;;;;;;9.17;4.23;;;;;;;;;;781313;179;920909;-67
2023/11/10 05:27:04;;;;;;;6.30;4.10;;;;;;;;;;773657;179;1018381;-67
2023/11/10 05:29:29;;;;;;;8.57;5.10;;;;;;;;;;777566;178;624943;-68
2023/11/10 05:31:57;;;;;;;10.37;5.13;;;;;;;;;;782696;179;711492;-67
2023/11/10 05:34:20;;;;;;;9.90;5.60;;;;;;;;;;780611;179;816935;-68
2023/11/10 05:36:46;;;;;;;8.10;6.10;;;;;;;;;;778481;179;917789;-68
2023/11/10 05:39:12;;;;;;;7.27;5.00;;;;;;;;;;781837;178;822579;-67
2023/11/10 05:41:40;;;;;;;7.80;5.20;;;;;;;;;;776001;179;907220;-69
2023/11/10 05:44:04;;;;;;;6.70;4.87;;;;;;;;;;769957;179;919478;-68
2023/11/10 05:46:30;;;;;;;6.20;5.23;;;;;;;;;;773468;179;917934;-67
2023/11/10 05:48:56;;;;;;;6.87;4.90;;;;;;;;;;788554;178;621191;-69
2023/11/10 05:51:22;;;;;;;6.23;4.50;;;;;;;;;;776201;179;623655;-69
2023/11/10 05:53:47;;;;;;;11.80;5.13;;;;;;;;;;779376;179;649696;-69
2023/11/10 05:56:13;;;;;;;8.20;5.30;;;;;;;;;;786654;179;618827;-68
2023/11/10 05:58:39;;;;;;;6.67;5.27;;;;;;;;;;782388;175;919125;-67
2023/11/10 06:01:05;;;;;;;6.13;4.70;;;;;;;;;;772733;179;922311;-67
2023/11/10 06:03:32;;;;;;;7.17;4.70;;;;;;;;;;779753;179;916114;-67
2023/11/10 06:05:57;;;;;;;6.77;4.70;;;;;;;;;;771943;179;818298;-67
2023/11/10 06:08:24;;;;;;;6.87;4.90;;;;;;;;;;780762;177;1018718;-68
2023/11/10 06:10:52;;;;;;;7.70;5.67;;;;;;;;;;777629;179;920236;-68
2023/11/10 06:13:14;;;;;;;8.00;5.90;;;;;;;;;;773748;175;918637;-67
2023/11/10 06:15:41;;;;;;;7.73;5.60;;;;;;;;;;780108;178;920846;-69
2023/11/10 06:18:06;;;;;;;9.27;5.20;;;;;;;;;;774394;178;918795;-68
2023/11/10 06:20:32;;;;;;;6.90;5.20;;;;;;;;;;783502;178;1018303;-67
2023/11/10 06:22:58;;;;;;;8.67;5.67;;;;;;;;;;774025;178;918062;-68
2023/11/10 06:25:24;;;;;;;6.83;5.50;;;;;;;;;;778229;178;912984;-68
2023/11/10 06:27:49;;;;;;;12.57;6.00;;;;;;;;;;782165;178;918110;-67
2023/11/10 06:30:15;;;;;;;8.80;6.60;;;;;;;;;;775321;178;918075;-68
2023/11/10 06:32:41;;;;;;;14.83;6.07;;;;;;;;;;769009;178;817482;-67
2023/11/10 06:35:09;;;;;;;8.87;6.43;;;;;;;;;;785227;178;913102;-68
2023/11/10 06:37:33;;;;;;;7.60;6.20;;;;;;;;;;777855;177;917991;-67
2023/11/10 06:39:59;;;;;;;8.73;6.00;;;;;;;;;;774095;179;916893;-67
2023/11/10 06:42:26;;;;;;;10.80;5.63;;;;;;;;;;778757;175;919731;-68
2023/11/10 06:44:50;;;;;;;9.00;5.50;;;;;;;;;;785286;178;918222;-67
2023/11/10 06:47:16;;;;;;;8.33;5.47;;;;;;;;;;774874;178;921381;-67
2023/11/10 06:49:42;;;;;;;7.95;6.20;;;;;;;;;;773487;179;924162;-68
2023/11/10 06:52:10;;;;;;;10.20;6.80;;;;;;;;;;782683;180;919181;-67
2023/11/10 06:54:34;;;;;;;8.70;5.60;;;;;;;;;;779906;179;921404;-67
2023/11/10 06:57:00;;;;;;;8.00;6.10;;;;;;;;;;777470;179;915796;-66
2023/11/10 06:59:26;;;;;;;7.93;6.03;;;;;;;;;;776532;179;918395;-67
2023/11/10 07:01:52;;;;;;;11.03;5.90;;;;;;;;;;775425;177;918345;-67
2023/11/10 07:04:17;;;;;;;10.07;6.00;;;;;;;;;;780282;178;900955;-67
2023/11/10 07:06:44;;;;;;;13.00;6.27;;;;;;;;;;770129;179;914685;-67
2023/11/10 07:09:12;;;;;;;9.33;4.80;;;;;;;;;;776379;179;918958;-67
2023/11/10 07:11:36;;;;;;;8.30;5.50;;;;;;;;;;776039;179;917540;-67
2023/11/10 07:14:02;;;;;;;6.37;4.80;;;;;;;;;;772809;179;920565;-68
2023/11/10 07:16:27;;;;;;;8.50;6.90;;;;;;;;;;780494;179;919441;-68
2023/11/10 07:18:53;;;;;;;8.03;6.33;;;;;;;;;;777157;179;920277;-67
2023/11/10 07:21:19;;;;;;;9.67;6.60;;;;;;;;;;772815;179;918295;-68
2023/11/10 07:23:45;;;;;;;9.90;6.03;;;;;;;;;;780853;178;919956;-67
2023/11/10 07:26:12;;;;;;;8.87;5.93;;;;;;;;;;774655;178;911548;-68
2023/11/10 07:28:36;;;;;;;9.80;5.43;;;;;;;;;;781591;177;910678;-68
2023/11/10 07:31:02;;;;;;;13.83;6.20;;;;;;;;;;779959;178;917866;-69
2023/11/10 07:33:28;;;;;;;10.23;5.90;;;;;;;;;;772050;180;933422;-67
2023/11/10 07:35:54;;;;;;;6.83;5.40;;;;;;;;;;773791;178;918552;-67
2023/11/10 07:38:20;;;;;;;10.00;6.40;;;;;;;;;;775019;179;919217;-67
2023/11/10 07:40:46;;;;;;;8.77;5.68;;;;;;;;;;785001;178;817281;-67
2023/11/10 07:43:11;;;;;;;11.70;7.40;;;;;;;;;;771433;178;919560;-67
2023/11/10 07:45:38;;;;;;;9.40;4.90;;;;;;;;;;776341;179;918764;-67
2023/11/10 07:48:04;;;;;;;8.30;4.97;;;;;;;;;;781192;178;881025;-67
2023/11/10 07:50:29;;;;;;;8.73;5.43;;;;;;;;;;778261;179;919070;-69
2023/11/10 07:52:55;;;;;;;11.20;5.87;;;;;;;;;;767648;180;924803;-68
2023/11/10 07:55:22;;;;;;;10.93;6.30;;;;;;;;;;778292;179;918100;-67
2023/11/10 07:57:47;;;;;;;13.60;5.93;;;;;;;;;;778716;178;918837;-67
2023/11/10 08:00:16;;;;;;;10.37;5.97;;;;;;;;;;776748;179;822123;-67
2023/11/10 08:02:40;;;;;;;10.93;5.10;;;;;;;;;;772497;179;920250;-67
2023/11/10 08:05:05;;;;;;;10.20;5.73;;;;;;;;;;769196;180;916741;-67
2023/11/10 08:07:31;;;;;;;6.00;4.70;;;;;;;;;;779175;179;628752;-66
2023/11/10 08:09:57;;;;;;;8.13;4.63;;;;;;;;;;774644;179;919640;-67
2023/11/10 08:12:23;;;;;;;6.15;4.57;;;;;;;;;;780455;179;921466;-66
2023/11/10 08:14:50;;;;;;;7.00;4.33;;;;;;;;;;776162;179;912021;-67
2023/11/10 08:17:15;;;;;;;8.13;4.72;;;;;;;;;;779472;175;920366;-67
2023/11/10 08:19:41;;;;;;;5.40;4.30;;;;;;;;;;779971;179;922926;-67
2023/11/10 08:22:06;;;;;;;5.33;3.83;;;;;;;;;;777533;176;924570;-68
2023/11/10 08:24:32;;;;;;;8.10;3.83;;;;;;;;;;775554;179;918641;-68
2023/11/10 08:26:58;;;;;;;6.85;3.80;;;;;;;;;;777150;179;816220;-67
2023/11/10 08:29:24;;;;;;;13.37;5.33;;;;;;;;;;768337;180;816480;-67
2023/11/10 08:31:52;;;;;;;5.77;4.10;;;;;;;;;;776969;177;914478;-68
2023/11/10 08:34:16;;;;;;;7.47;3.73;;;;;;;;;;780322;179;917583;-67
2023/11/10 08:36:42;;;;;;;6.00;3.60;;;;;;;;;;781928;179;916296;-67
2023/11/10 08:39:08;;;;;;;6.87;4.00;;;;;;;;;;780175;177;920104;-68
2023/11/10 08:41:34;;;;;;;5.40;3.93;;;;;;;;;;777018;178;919398;-68
2023/11/10 08:43:59;;;;;;;5.82;3.62;;;;;;;;;;780325;178;919444;-67
2023/11/10 08:46:25;;;;;;;7.57;3.60;;;;;;;;;;776864;178;921046;-68
2023/11/10 08:48:51;;;;;;;6.53;3.95;;;;;;;;;;773539;180;918043;-66
2023/11/10 08:51:18;;;;;;;5.77;3.50;;;;;;;;;;782114;178;762870;-67
2023/11/10 08:53:43;;;;;;;6.90;3.27;;;;;;;;;;774429;178;918225;-67
2023/11/10 08:56:09;;;;;;;4.67;3.17;;;;;;;;;;770440;179;917299;-66
2023/11/10 08:58:35;;;;;;;12.33;3.33;;;;;;;;;;777117;177;915561;-67
2023/11/10 09:01:01;;;;;;;5.80;3.50;;;;;;;;;;783047;179;918723;-68
2023/11/10 09:03:26;;;;;;;5.63;3.73;;;;;;;;;;774248;179;918639;-69
2023/11/10 09:05:52;;;;;;;5.27;3.40;;;;;;;;;;776184;179;919409;-67
2023/11/10 09:08:18;;;;;;;5.45;3.47;;;;;;;;;;780690;179;917755;-68
2023/11/10 09:10:44;;;;;;;6.40;4.20;;;;;;;;;;770794;179;919925;-67
2023/11/10 09:13:10;;;;;;;4.80;3.53;;;;;;;;;;772956;179;918672;-67
2023/11/10 09:15:36;;;;;;;6.77;3.70;;;;;;;;;;781292;179;921339;-67
2023/11/10 09:18:02;;;;;;;4.93;3.67;;;;;;;;;;777761;177;921438;-67
2023/11/10 09:20:27;;;;;;;6.70;3.28;;;;;;;;;;776153;179;919119;-67
2023/11/10 09:22:54;;;;;;;4.95;3.50;;;;;;;;;;778994;179;817313;-65
2023/11/10 09:25:20;;;;;;;5.50;3.33;;;;;;;;;;771390;180;817862;-68
2023/11/10 09:27:45;;;;;;;4.60;2.50;;;;;;;;;;777722;177;918658;-67
2023/11/10 09:30:11;;;;;;;6.50;2.97;;;;;;;;;;770288;179;919704;-68
2023/11/10 09:32:37;;;;;;;16.23;2.80;;;;;;;;;;782216;179;916740;-67
2023/11/10 09:35:04;;;;;;;9.47;3.53;;;;;;;;;;772994;179;818516;-66
2023/11/10 09:37:29;;;;;;;8.47;3.57;;;;;;;;;;775087;179;918186;-66
2023/11/10 09:39:55;;;;;;;5.40;2.60;;;;;;;;;;779838;179;918789;-68
2023/11/10 09:42:22;;;;;;;4.90;3.60;;;;;;;;;;776339;179;920551;-67
2023/11/10 09:44:47;;;;;;;4.07;2.80;;;;;;;;;;774279;179;920036;-67
2023/11/10 09:47:13;;;;;;;6.23;2.77;;;;;;;;;;782703;179;918671;-66
2023/11/10 09:49:39;;;;;;;4.00;2.60;;;;;;;;;;777876;178;919215;-66
2023/11/10 09:52:04;;;;;;;5.67;2.60;;;;;;;;;;780630;177;920730;-67
2023/11/10 09:54:31;;;;;;;3.73;2.10;;;;;;;;;;777237;178;920432;-67
2023/11/10 09:56:56;;;;;;;4.20;2.47;;;;;;;;;;774055;178;917978;-66
2023/11/10 09:59:25;;;;;;;3.17;1.67;;;;;;;;;;779576;178;921113;-66
2023/11/10 10:01:48;;;;;;;3.23;1.90;;;;;;;;;;779020;178;919595;-66
2023/11/10 10:04:14;;;;;;;4.50;1.80;;;;;;;;;;776599;177;815961;-67
2023/11/10 10:06:40;;;;;;;4.90;2.33;;;;;;;;;;778764;178;919226;-67
2023/11/10 10:09:05;;;;;;;4.67;2.00;;;;;;;;;;777773;177;919623;-66
2023/11/10 10:11:31;;;;;;;5.07;1.80;;;;;;;;;;777483;179;922783;-67
2023/11/10 10:13:57;;;;;;;6.23;2.10;;;;;;;;;;777728;176;919172;-67
2023/11/10 10:16:23;;;;;;;5.32;2.80;;;;;;;;;;777223;179;913720;-67
2023/11/10 10:18:49;;;;;;;6.65;2.80;;;;;;;;;;783806;179;817294;-67
2023/11/10 10:21:15;;;;;;;5.07;3.13;;;;;;;;;;768915;181;919865;-66
2023/11/10 10:23:41;;;;;;;5.30;3.40;;;;;;;;;;773496;179;917990;-66
2023/11/10 10:26:07;;;;;;;6.13;3.70;;;;;;;;;;770739;179;918203;-66
2023/11/10 10:28:33;;;;;;;6.13;3.80;;;;;;;;;;782323;179;890606;-66
2023/11/10 10:30:59;;;;;;;9.80;5.27;;;;;;;;;;769533;180;918464;-66
2023/11/10 10:33:25;;;;;;;8.18;4.90;;;;;;;;;;775151;178;917709;-66
2023/11/10 10:35:51;;;;;;;9.53;4.37;;;;;;;;;;782812;179;919459;-66
2023/11/10 10:38:17;;;;;;;5.57;3.70;;;;;;;;;;778797;176;920850;-66
2023/11/10 10:40:42;;;;;;;9.00;4.20;;;;;;;;;;775552;179;918645;-67
2023/11/10 10:43:08;;;;;;;8.13;4.30;;;;;;;;;;778286;179;897509;-67
2023/11/10 10:45:36;;;;;;;6.40;3.90;;;;;;;;;;778377;179;919209;-67
2023/11/10 10:48:00;;;;;;;4.03;2.70;;;;;;;;;;777763;179;917991;-68
2023/11/10 10:50:26;;;;;;;5.30;2.80;;;;;;;;;;775232;179;888646;-67
2023/11/10 10:52:52;;;;;;;4.40;2.13;;;;;;;;;;774933;179;919155;-68
2023/11/10 10:55:17;;;;;;;5.33;3.53;;;;;;;;;;773411;179;917883;-67
2023/11/10 10:57:43;;;;;;;3.80;2.30;;;;;;;;;;773621;179;920206;-66
2023/11/10 11:00:15;;;;;;;5.40;2.73;;;;;;;;;;783438;179;915681;-67
2023/11/10 11:02:35;;;;;;;5.00;2.30;;;;;;;;;;783027;177;917664;-67
2023/11/10 11:05:08;;;;;;;6.20;2.50;;;;;;;;;;779754;178;845773;-67
2023/11/10 11:07:43;;;;;;;4.17;2.10;;;;;;;;;;776753;178;919274;-67
2023/11/10 11:10:15;;;;;;;2.80;1.53;;;;;;;;;;773798;180;901902;-66
2023/11/10 11:12:58;;;;;;;3.63;2.20;;;;;;;;;;777536;178;941781;-68
2023/11/10 11:15:25;;;;;;;5.83;2.37;;;;;;;;;;777578;179;917517;-66
2023/11/10 11:17:53;;;;;;;4.60;2.30;;;;;;;;;;769946;178;918891;-67
2023/11/10 11:20:19;;;;;;;5.20;2.10;;;;;;;;;;773034;179;918557;-67
2023/11/10 11:22:47;;;;;;;4.30;2.77;;;;;;;;;;780477;179;924213;-66
2023/11/10 11:25:12;;;;;;;5.17;2.33;;;;;;;;;;773483;179;942668;-65
2023/11/10 11:27:37;;;;;;;3.60;2.30;;;;;;;;;;770848;179;919631;-67
2023/11/10 11:30:07;;;;;;;5.97;2.40;;;;;;;;;;781515;179;921001;-67
2023/11/10 11:32:30;;;;;;;4.13;1.73;;;;;;;;;;778618;179;843092;-66
2023/11/10 11:34:56;;;;;;;3.50;2.08;;;;;;;;;;778463;179;919558;-67
2023/11/10 11:37:22;;;;;;;4.00;2.40;;;;;;;;;;774974;176;918544;-66
2023/11/10 11:39:54;;;;;;;3.70;1.90;;;;;;;;;;782631;179;817287;-67
2023/11/10 11:42:20;;;;;;;4.33;1.87;;;;;;;;;;770169;179;919297;-68
2023/11/10 11:44:46;;;;;;;4.00;2.07;;;;;;;;;;777224;179;917106;-67
2023/11/10 11:47:13;;;;;;;4.60;3.95;;;;;;;;;;781050;178;913485;-67
2023/11/10 11:49:39;;;;;;;2.60;1.73;;;;;;;;;;771601;180;915517;-67
2023/11/10 11:52:04;;;;;;;4.07;2.67;;;;;;;;;;777773;178;914810;-69
2023/11/10 11:54:30;;;;;;;4.53;1.93;;;;;;;;;;769764;179;920024;-66
2023/11/10 11:56:56;;;;;;;4.70;2.10;;;;;;;;;;777128;179;918808;-67
2023/11/10 11:59:22;;;;;;;4.40;2.90;;;;;;;;;;777898;179;918594;-67
2023/11/10 12:01:48;;;;;;;5.13;3.50;;;;;;;;;;775911;179;871482;-67
2023/11/10 12:04:13;;;;;;;3.67;1.93;;;;;;;;;;782333;178;810550;-67
2023/11/10 12:06:41;;;;;;;3.90;1.93;;;;;;;;;;777306;179;918162;-66
2023/11/10 12:09:06;;;;;;;25.40;11.17;;;;;;;;;;777403;176;915692;-68
2023/11/10 12:11:32;;;;;;;20.10;10.83;;;;;;;;;;780654;179;874971;-67
2023/11/10 12:13:57;;;;;;;11.93;7.43;;;;;;;;;;776955;178;918526;-68
2023/11/10 12:16:24;;;;;;;22.33;13.10;;;;;;;;;;779198;178;918948;-67
2023/11/10 12:18:50;;;;;;;5.67;3.10;;;;;;;;;;780972;178;813192;-66
2023/11/10 12:21:16;;;;;;;13.73;9.80;;;;;;;;;;783901;178;917840;-68
2023/11/10 12:23:42;;;;;;;54.00;22.60;;;;;;;;;;777416;178;915896;-67
2023/11/10 12:26:08;;;;;;;36.05;17.45;;;;;;;;;;775975;178;909448;-66
2023/11/10 12:28:33;;;;;;;9.77;5.87;;;;;;;;;;777725;178;714888;-66
2023/11/10 12:30:59;;;;;;;6.27;3.77;;;;;;;;;;778125;178;911275;-64
2023/11/10 12:33:25;;;;;;;4.20;3.23;;;;;;;;;;771907;178;927862;-69
2023/11/10 12:35:51;;;;;;;6.43;4.83;;;;;;;;;;782882;179;921476;-65
2023/11/10 12:38:17;;;;;;;5.40;4.13;;;;;;;;;;777851;179;944794;-67
2023/11/10 12:40:42;;;;;;;13.13;9.10;;;;;;;;;;778101;179;917202;-66
2023/11/10 12:43:09;;;;;;;5.50;4.33;;;;;;;;;;785386;175;623643;-66
2023/11/10 12:45:34;;;;;;;20.37;10.33;;;;;;;;;;777687;178;619079;-66
2023/11/10 12:48:00;;;;;;;18.40;12.10;;;;;;;;;;777688;179;625085;-65
2023/11/10 12:50:26;;;;;;;5.70;3.90;;;;;;;;;;774825;179;634646;-68
2023/11/10 12:52:52;;;;;;;6.63;4.47;;;;;;;;;;775724;177;918191;-67
2023/11/10 12:55:17;;;;;;;16.03;12.77;;;;;;;;;;770896;179;938544;-67
2023/11/10 12:57:46;;;;;;;7.83;6.60;;;;;;;;;;776365;179;919044;-65
2023/11/10 13:00:11;;;;;;;5.50;4.00;;;;;;;;;;784168;179;839956;-67
2023/11/10 13:02:36;;;;;;;4.33;2.33;;;;;;;;;;775406;179;919191;-67
2023/11/10 13:05:02;;;;;;;5.27;4.40;;;;;;;;;;773979;179;822883;-65
2023/11/10 13:07:27;;;;;;;3.58;1.92;;;;;;;;;;780269;176;780801;-67
2023/11/10 13:09:54;;;;;;;3.17;1.93;;;;;;;;;;763263;179;906552;-66
2023/11/10 13:12:19;;;;;;;4.37;2.70;;;;;;;;;;777641;179;816862;-67
2023/11/10 13:14:45;;;;;;;4.53;3.27;;;;;;;;;;774470;179;918618;-66
2023/11/10 13:17:11;;;;;;;9.43;3.23;;;;;;;;;;781343;178;852848;-67
2023/11/10 13:19:36;;;;;;;9.73;6.00;;;;;;;;;;776914;179;915936;-67
2023/11/10 13:22:02;;;;;;;28.08;15.40;;;;;;;;;;774644;179;920150;-67
2023/11/10 13:24:28;;;;;;;28.23;15.67;;;;;;;;;;782124;176;920593;-66
2023/11/10 13:26:54;;;;;;;28.37;13.70;;;;;;;;;;777204;178;916436;-67
2023/11/10 13:29:20;;;;;;;19.60;11.30;;;;;;;;;;778041;178;942594;-67
2023/11/10 13:31:46;;;;;;;22.23;11.90;;;;;;;;;;777977;178;914546;-66
2023/11/10 13:34:18;;;;;;;21.40;9.50;;;;;;;;;;778327;178;918484;-65
2023/11/10 13:36:38;;;;;;;12.80;6.40;;;;;;;;;;778775;178;919509;-66
2023/11/10 13:39:05;;;;;;;14.73;7.40;;;;;;;;;;780374;175;928442;-67
2023/11/10 13:41:30;;;;;;;13.10;10.10;;;;;;;;;;774503;179;918619;-68
2023/11/10 13:43:55;;;;;;;14.60;8.37;;;;;;;;;;771254;178;917437;-66
2023/11/10 13:46:21;;;;;;;30.77;17.70;;;;;;;;;;776843;179;920984;-66
2023/11/10 13:48:50;;;;;;;20.40;13.37;;;;;;;;;;785098;179;828801;-66
2023/11/10 13:51:12;;;;;;;16.03;7.93;;;;;;;;;;775643;179;918357;-66
2023/11/10 13:53:38;;;;;;;9.10;6.40;;;;;;;;;;777930;179;795090;-65
2023/11/10 13:56:04;;;;;;;12.73;8.73;;;;;;;;;;780575;179;764554;-65
2023/11/10 13:58:30;;;;;;;12.10;8.00;;;;;;;;;;775661;179;1021740;-65
2023/11/10 14:00:56;;;;;;;12.40;8.37;;;;;;;;;;773999;178;915598;-65
2023/11/10 14:03:22;;;;;;;11.10;8.17;;;;;;;;;;782850;176;711279;-65
2023/11/10 14:05:48;;;;;;;12.57;8.47;;;;;;;;;;775290;179;918582;-67
2023/11/10 14:08:15;;;;;;;13.50;7.00;;;;;;;;;;776932;179;816334;-66
2023/11/10 14:10:40;;;;;;;7.80;5.53;;;;;;;;;;777566;179;770973;-66
2023/11/10 14:13:06;;;;;;;6.93;5.93;;;;;;;;;;768494;180;809758;-67
2023/11/10 14:15:32;;;;;;;8.20;6.00;;;;;;;;;;777910;179;818581;-68
2023/11/10 14:17:58;;;;;;;8.30;5.97;;;;;;;;;;772649;179;910885;-67